Time;durP1;ratioP1;P1;durP2;ratioP2;P2;SDS_P1;SDS_P2;PMS_P1;PMS_P2;Temp;Humidity;BMP_temperature;BMP_pressure;BME280_temperature;BME280_humidity;BME280_pressure;Samples;Min_cycle;Max_cycle;Signal;HPM_P1;HPM_P2
2021/04/12 00:01:52;;;;;;;9.60;3.53;;;21.80;70.20;;;;;;5012878;28;20092;-73
2021/04/12 00:04:36;;;;;;;9.50;3.13;;;21.80;70.20;;;;;;5015568;28;20393;-71
2021/04/12 00:07:11;;;;;;;6.68;2.80;;;21.70;70.20;;;;;;5012535;28;20026;-68
2021/04/12 00:10:13;;;;;;;10.27;3.47;;;21.80;70.20;;;;;;5014443;28;20052;-68
2021/04/12 00:12:48;;;;;;;6.68;2.70;;;21.70;70.10;;;;;;5015920;28;20152;-70
2021/04/12 00:15:31;;;;;;;9.18;2.70;;;21.70;70.10;;;;;;5014761;28;20091;-74
2021/04/12 00:18:10;;;;;;;7.78;2.88;;;21.70;70.10;;;;;;5014390;28;20104;-74
2021/04/12 00:20:47;;;;;;;8.93;2.63;;;21.70;70.10;;;;;;5017974;28;20017;-71
2021/04/12 00:23:35;;;;;;;11.05;2.83;;;21.70;70.00;;;;;;5013214;28;20024;-68
2021/04/12 00:26:30;;;;;;;9.38;2.63;;;21.70;70.10;;;;;;5014156;28;20615;-71
2021/04/12 00:29:23;;;;;;;7.18;3.08;;;21.70;70.00;;;;;;5012791;28;20034;-70
2021/04/12 00:32:21;;;;;;;7.82;3.72;;;21.70;69.90;;;;;;5013760;28;20033;-68
2021/04/12 00:35:05;;;;;;;7.45;2.63;;;21.70;69.90;;;;;;5013037;28;20429;-70
2021/04/12 00:37:52;;;;;;;8.00;2.28;;;21.70;69.70;;;;;;5015709;28;20060;-67
2021/04/12 00:40:23;;;;;;;7.10;2.83;;;21.70;69.70;;;;;;5015019;28;20026;-68
2021/04/12 00:43:31;;;;;;;7.80;2.95;;;21.60;69.60;;;;;;5011463;28;20436;-68
2021/04/12 00:46:22;;;;;;;8.38;2.72;;;21.60;69.60;;;;;;5015320;28;21019;-72
2021/04/12 00:49:04;;;;;;;8.23;2.65;;;21.60;69.50;;;;;;5017336;28;20032;-68
2021/04/12 00:51:36;;;;;;;5.95;2.45;;;21.60;69.50;;;;;;5019049;28;20032;-67
2021/04/12 00:54:09;;;;;;;7.28;2.47;;;21.50;69.40;;;;;;5021482;28;20033;-70
2021/04/12 00:57:23;;;;;;;5.38;2.47;;;21.50;69.40;;;;;;5015301;28;20033;-72
2021/04/12 00:59:55;;;;;;;6.20;2.20;;;21.60;69.50;;;;;;5023557;28;20033;-71
2021/04/12 01:02:50;;;;;;;6.60;1.80;;;21.50;69.30;;;;;;5016507;28;20033;-69
2021/04/12 01:06:00;;;;;;;5.88;1.70;;;21.50;69.30;;;;;;5018041;28;20041;-70
2021/04/12 01:08:57;;;;;;;6.13;2.08;;;21.50;69.20;;;;;;5020160;28;20396;-71
2021/04/12 01:11:54;;;;;;;7.88;2.63;;;21.50;69.20;;;;;;5018460;28;20022;-70
2021/04/12 01:14:59;;;;;;;5.97;2.47;;;21.50;69.10;;;;;;5021343;28;20058;-71
2021/04/12 01:17:32;;;;;;;11.95;1.77;;;21.50;69.00;;;;;;5024664;28;20169;-70
2021/04/12 01:20:24;;;;;;;4.32;1.88;;;21.40;69.00;;;;;;5014828;28;20478;-68
2021/04/12 01:23:27;;;;;;;7.22;1.80;;;21.50;69.00;;;;;;5016511;28;20048;-70
2021/04/12 01:26:30;;;;;;;2.00;1.50;;;21.50;69.00;;;;;;5015713;28;20034;-68
2021/04/12 01:29:34;;;;;;;7.03;2.20;;;21.40;68.90;;;;;;5014847;28;20030;-69
2021/04/12 01:32:37;;;;;;;5.75;2.38;;;21.40;68.90;;;;;;5016948;28;20077;-69
2021/04/12 01:35:32;;;;;;;7.50;2.60;;;21.40;68.90;;;;;;5019585;28;20481;-70
2021/04/12 01:38:22;;;;;;;6.88;2.78;;;21.40;69.00;;;;;;5030474;28;20460;-67
2021/04/12 01:40:52;;;;;;;7.95;2.47;;;21.40;69.00;;;;;;5017755;28;20041;-68
2021/04/12 01:43:34;;;;;;;10.60;2.80;;;21.40;69.10;;;;;;5016561;28;20025;-69
2021/04/12 01:46:13;;;;;;;9.38;2.47;;;21.40;69.20;;;;;;5019002;28;20026;-71
2021/04/12 01:48:46;;;;;;;9.90;3.03;;;21.40;69.40;;;;;;5019133;28;20033;-70
2021/04/12 01:51:36;;;;;;;8.73;2.92;;;21.30;69.40;;;;;;5014349;28;20459;-69
2021/04/12 01:54:24;;;;;;;9.10;2.70;;;21.30;69.50;;;;;;5016032;28;20021;-69
2021/04/12 01:57:24;;;;;;;11.45;2.85;;;21.40;69.50;;;;;;5020900;28;20029;-70
2021/04/12 02:00:21;;;;;;;7.95;2.28;;;21.40;69.50;;;;;;5014962;28;20037;-71
2021/04/12 02:03:06;;;;;;;10.52;3.80;;;21.30;69.50;;;;;;5015363;28;20034;-68
2021/04/12 02:05:41;;;;;;;7.22;2.67;;;21.30;69.50;;;;;;5017753;28;20379;-70
2021/04/12 02:08:29;;;;;;;10.32;3.88;;;21.30;69.50;;;;;;5016986;28;20036;-71
2021/04/12 02:11:19;;;;;;;7.93;3.40;;;21.30;69.50;;;;;;5014452;28;20437;-71
2021/04/12 02:14:35;;;;;;;8.60;3.25;;;21.30;69.60;;;;;;5017452;28;20025;-73
2021/04/12 02:17:45;;;;;;;6.38;3.22;;;21.30;69.60;;;;;;5017010;28;20029;-73
2021/04/12 02:20:20;;;;;;;7.70;4.05;;;21.20;69.60;;;;;;4995164;28;20027;-72
2021/04/12 02:22:56;;;;;;;8.07;4.00;;;21.20;69.60;;;;;;4998192;28;20132;-70
2021/04/12 02:25:34;;;;;;;10.00;4.40;;;21.20;69.60;;;;;;5008887;28;20038;-71
2021/04/12 02:28:33;;;;;;;14.60;5.88;;;21.20;69.50;;;;;;5016945;28;20029;-70
2021/04/12 02:31:36;;;;;;;9.82;4.78;;;21.20;69.50;;;;;;5017978;28;20482;-69
2021/04/12 02:34:40;;;;;;;10.63;3.90;;;21.20;69.40;;;;;;5014389;28;20036;-68
2021/04/12 02:37:09;;;;;;;13.40;4.25;;;21.20;69.40;;;;;;5017206;28;20857;-71
2021/04/12 02:40:15;;;;;;;10.20;3.45;;;21.10;69.30;;;;;;5015322;28;20034;-74
2021/04/12 02:43:35;;;;;;;8.05;2.80;;;21.10;69.40;;;;;;5014987;28;20034;-70
2021/04/12 02:46:10;;;;;;;6.45;2.80;;;21.20;69.40;;;;;;4993273;28;20505;-70
2021/04/12 02:48:47;;;;;;;6.05;3.17;;;21.10;69.40;;;;;;5026014;28;20168;-70
2021/04/12 02:51:23;;;;;;;7.90;2.92;;;21.10;69.50;;;;;;5016661;28;20823;-69
2021/04/12 02:54:27;;;;;;;8.35;3.85;;;21.10;69.50;;;;;;5016733;28;20026;-69
2021/04/12 02:57:18;;;;;;;8.77;3.90;;;21.10;69.60;;;;;;5017984;28;20031;-72
2021/04/12 03:00:26;;;;;;;11.55;3.75;;;21.10;69.60;;;;;;5015768;28;20030;-69
2021/04/12 03:03:10;;;;;;;9.38;3.97;;;21.10;69.70;;;;;;4994805;28;20065;-74
2021/04/12 03:05:52;;;;;;;12.02;3.78;;;21.10;69.70;;;;;;5017544;28;20029;-74
2021/04/12 03:08:41;;;;;;;9.93;3.25;;;21.00;69.70;;;;;;5020055;28;20535;-71
2021/04/12 03:11:44;;;;;;;13.40;4.80;;;21.00;69.80;;;;;;5012751;28;20033;-74
2021/04/12 03:14:29;;;;;;;11.77;4.75;;;21.00;69.80;;;;;;5012740;28;20374;-69
2021/04/12 03:17:20;;;;;;;11.55;4.18;;;21.00;69.80;;;;;;5016877;28;20057;-74
2021/04/12 03:20:25;;;;;;;11.68;3.97;;;21.00;69.80;;;;;;5018655;28;20343;-74
2021/04/12 03:23:42;;;;;;;11.23;4.05;;;21.00;69.80;;;;;;5017050;28;20099;-71
2021/04/12 03:26:17;;;;;;;7.47;3.42;;;21.00;69.90;;;;;;4995012;28;20120;-72
2021/04/12 03:29:02;;;;;;;11.20;3.33;;;21.00;69.90;;;;;;5016270;28;20076;-71
2021/04/12 03:32:13;;;;;;;8.30;3.17;;;21.00;70.10;;;;;;5014956;28;20021;-70
2021/04/12 03:35:14;;;;;;;8.10;3.38;;;20.90;70.00;;;;;;5012772;28;20053;-70
2021/04/12 03:38:03;;;;;;;10.77;3.33;;;21.00;70.20;;;;;;5016789;28;20028;-71
2021/04/12 03:40:38;;;;;;;6.32;2.65;;;21.00;70.20;;;;;;5016258;28;20037;-70
2021/04/12 03:43:14;;;;;;;8.38;2.53;;;20.90;70.30;;;;;;5013434;28;20456;-70
2021/04/12 03:45:41;;;;;;;11.25;3.03;;;20.90;70.40;;;;;;5015189;28;20026;-69
2021/04/12 03:48:49;;;;;;;8.55;3.03;;;20.90;70.50;;;;;;5012077;28;20018;-70
2021/04/12 03:51:37;;;;;;;11.95;2.67;;;20.90;70.50;;;;;;5013949;28;20037;-75
2021/04/12 03:54:12;;;;;;;12.95;3.10;;;20.90;70.60;;;;;;5018039;28;20970;-69
2021/04/12 03:57:07;;;;;;;12.93;3.22;;;20.90;70.60;;;;;;5018111;28;20571;-72
2021/04/12 03:59:52;;;;;;;7.75;3.28;;;20.90;70.70;;;;;;5016455;28;20116;-70
2021/04/12 04:02:33;;;;;;;13.52;3.85;;;20.90;70.60;;;;;;5017150;28;20124;-72
2021/04/12 04:05:25;;;;;;;13.27;3.85;;;20.90;70.60;;;;;;5015996;28;20066;-70
2021/04/12 04:08:15;;;;;;;8.00;3.70;;;20.90;70.70;;;;;;5013796;28;20022;-70
2021/04/12 04:11:03;;;;;;;13.63;5.63;;;20.80;70.60;;;;;;5015200;28;20029;-71
2021/04/12 04:14:00;;;;;;;20.30;10.25;;;20.80;70.60;;;;;;5017724;28;20025;-74
2021/04/12 04:16:39;;;;;;;15.20;7.60;;;20.80;70.80;;;;;;5011874;28;20010;-68
2021/04/12 04:19:36;;;;;;;11.10;5.90;;;20.80;70.80;;;;;;5015567;28;20036;-68
2021/04/12 04:22:47;;;;;;;14.90;5.68;;;20.80;70.90;;;;;;5014692;28;20052;-72
2021/04/12 04:25:34;;;;;;;16.08;7.03;;;20.80;71.20;;;;;;5026099;28;20117;-70
2021/04/12 04:28:25;;;;;;;13.77;5.35;;;20.80;71.30;;;;;;5022416;28;20041;-71
2021/04/12 04:31:28;;;;;;;11.02;4.97;;;20.70;71.30;;;;;;5017100;28;20468;-67
2021/04/12 04:34:24;;;;;;;15.07;6.57;;;20.70;71.30;;;;;;5018758;28;20117;-67
2021/04/12 04:37:42;;;;;;;19.75;9.93;;;20.80;71.40;;;;;;5019262;28;20034;-70
2021/04/12 04:40:39;;;;;;;14.02;7.00;;;20.80;71.40;;;;;;5024361;28;20040;-71
2021/04/12 04:43:36;;;;;;;17.30;7.50;;;20.70;71.40;;;;;;5017395;28;20485;-68
2021/04/12 04:46:24;;;;;;;14.82;5.95;;;20.70;71.50;;;;;;5022301;28;20056;-69
2021/04/12 04:49:00;;;;;;;13.02;5.32;;;20.70;71.60;;;;;;5019391;28;20026;-70
2021/04/12 04:51:40;;;;;;;16.27;6.03;;;20.70;71.60;;;;;;5019736;28;20026;-66
2021/04/12 04:54:32;;;;;;;9.98;3.75;;;20.70;71.60;;;;;;5017967;28;20064;-71
2021/04/12 04:57:23;;;;;;;9.98;4.63;;;20.70;71.70;;;;;;5022457;28;20107;-71
2021/04/12 05:00:26;;;;;;;12.27;5.10;;;20.70;71.80;;;;;;5019768;28;20017;-70
2021/04/12 05:03:14;;;;;;;16.27;5.18;;;20.70;71.70;;;;;;5018445;28;20041;-70
2021/04/12 05:06:20;;;;;;;13.95;6.32;;;20.70;71.80;;;;;;5027389;28;20433;-70
2021/04/12 05:09:31;;;;;;;14.82;6.60;;;20.70;71.70;;;;;;5020108;28;20033;-70
2021/04/12 05:12:19;;;;;;;15.55;6.75;;;20.60;71.70;;;;;;5036322;28;20499;-69
2021/04/12 05:15:13;;;;;;;18.63;6.32;;;20.60;71.70;;;;;;5019512;28;20014;-69
2021/04/12 05:17:52;;;;;;;13.60;6.88;;;20.60;71.70;;;;;;5016868;28;20032;-68
2021/04/12 05:20:47;;;;;;;17.20;7.13;;;20.60;72.00;;;;;;5017552;28;20394;-71
2021/04/12 05:23:42;;;;;;;10.57;5.93;;;20.60;71.70;;;;;;5017061;28;20041;-71
2021/04/12 05:26:14;;;;;;;13.35;5.65;;;20.60;71.70;;;;;;5014984;28;20479;-68
2021/04/12 05:29:02;;;;;;;12.13;5.53;;;20.60;71.70;;;;;;5015769;28;20026;-69
2021/04/12 05:31:51;;;;;;;15.25;5.32;;;20.60;71.70;;;;;;5019421;28;20354;-71
2021/04/12 05:34:53;;;;;;;13.30;4.80;;;20.60;71.70;;;;;;5014821;28;20164;-68
2021/04/12 05:37:37;;;;;;;13.30;4.65;;;20.60;71.80;;;;;;5034527;28;20455;-67
2021/04/12 05:40:25;;;;;;;9.90;4.60;;;20.60;71.80;;;;;;5017836;28;20034;-67
2021/04/12 05:43:11;;;;;;;13.45;4.32;;;20.60;71.90;;;;;;5018455;28;20025;-67
2021/04/12 05:45:40;;;;;;;;;;;20.60;72.00;;;;;;5019009;28;20071;-67
2021/04/12 05:48:34;;;;;;;8.02;4.25;;;20.50;72.00;;;;;;5018153;28;19912;-67
2021/04/12 05:51:10;;;;;;;13.35;4.97;;;20.60;72.10;;;;;;5015056;28;20022;-67
2021/04/12 05:54:04;;;;;;;9.93;4.93;;;20.60;72.20;;;;;;5016483;28;20030;-67
2021/04/12 05:56:46;;;;;;;13.13;5.28;;;20.50;72.30;;;;;;5019556;28;20022;-67
2021/04/12 05:59:31;;;;;;;12.48;5.03;;;20.50;72.40;;;;;;5018259;28;20444;-67
2021/04/12 06:02:24;;;;;;;11.23;3.67;;;20.50;72.40;;;;;;5018675;28;20040;-67
2021/04/12 06:05:28;;;;;;;8.73;4.32;;;20.60;72.60;;;;;;5014953;28;20022;-67
2021/04/12 06:08:35;;;;;;;6.60;3.60;;;20.50;72.70;;;;;;5016048;28;20045;-67
2021/04/12 06:11:28;;;;;;;8.50;3.72;;;20.50;72.80;;;;;;5014673;28;20013;-67
2021/04/12 06:14:23;;;;;;;10.52;3.85;;;20.50;72.80;;;;;;5015030;28;20022;-68
2021/04/12 06:17:08;;;;;;;10.73;4.75;;;20.50;73.00;;;;;;5018050;28;20487;-67
2021/04/12 06:19:38;;;;;;;11.45;4.03;;;20.50;73.10;;;;;;5017754;28;20584;-69
2021/04/12 06:22:07;;;;;;;10.98;4.47;;;20.50;73.20;;;;;;5016350;28;20033;-67
2021/04/12 06:24:51;;;;;;;11.20;3.80;;;20.50;73.40;;;;;;5014957;28;20030;-67
2021/04/12 06:27:34;;;;;;;8.27;3.80;;;20.50;73.50;;;;;;5016759;28;20088;-67
2021/04/12 06:30:19;;;;;;;10.27;4.68;;;20.60;74.30;;;;;;5016726;28;20042;-67
2021/04/12 06:32:57;;;;;;;13.05;4.82;;;20.60;74.50;;;;;;5016292;28;20049;-67
2021/04/12 06:35:32;;;;;;;12.10;4.00;;;20.60;74.00;;;;;;5015842;28;20459;-67
2021/04/12 06:38:28;;;;;;;7.03;3.85;;;20.60;74.20;;;;;;5016228;28;20025;-69
2021/04/12 06:41:32;;;;;;;12.38;4.82;;;20.60;74.90;;;;;;5014408;28;20021;-67
2021/04/12 06:44:08;;;;;;;12.95;5.20;;;20.60;74.30;;;;;;5016599;28;20021;-71
2021/04/12 06:47:02;;;;;;;13.57;5.07;;;20.70;74.40;;;;;;5017313;28;20072;-68
2021/04/12 06:49:56;;;;;;;9.57;4.80;;;20.70;74.60;;;;;;5018208;28;20025;-69
2021/04/12 06:52:41;;;;;;;8.27;3.47;;;20.70;74.60;;;;;;5015030;28;20033;-67
2021/04/12 06:55:19;;;;;;;8.05;3.80;;;20.70;74.60;;;;;;5017672;28;20365;-67
2021/04/12 06:58:04;;;;;;;12.05;3.95;;;20.80;74.60;;;;;;5017576;28;20488;-69
2021/04/12 07:00:56;;;;;;;7.03;4.43;;;20.80;74.60;;;;;;5017834;28;20024;-67
2021/04/12 07:04:04;;;;;;;11.00;3.85;;;20.80;74.60;;;;;;5017277;28;20072;-67
2021/04/12 07:06:44;;;;;;;10.93;4.25;;;20.80;74.60;;;;;;5019478;28;20037;-67
2021/04/12 07:09:39;;;;;;;7.97;3.58;;;20.80;74.50;;;;;;5014778;28;20535;-70
2021/04/12 07:12:42;;;;;;;8.45;4.00;;;20.90;74.60;;;;;;5017212;28;20021;-67
2021/04/12 07:15:46;;;;;;;10.85;3.70;;;20.90;74.40;;;;;;5016808;28;20022;-69
2021/04/12 07:19:01;;;;;;;8.65;3.63;;;20.90;74.50;;;;;;5013669;28;20425;-67
2021/04/12 07:22:05;;;;;;;9.60;4.28;;;20.90;74.50;;;;;;5016348;28;20061;-67
2021/04/12 07:24:52;;;;;;;7.47;4.20;;;20.90;74.50;;;;;;5016466;28;20087;-70
2021/04/12 07:27:43;;;;;;;12.05;4.35;;;21.00;74.60;;;;;;5013777;28;20026;-72
2021/04/12 07:30:23;;;;;;;10.90;3.92;;;21.00;74.60;;;;;;5014831;28;20032;-70
2021/04/12 07:33:26;;;;;;;9.20;3.95;;;21.00;74.50;;;;;;5016458;28;20042;-66
2021/04/12 07:36:11;;;;;;;11.68;4.45;;;21.00;74.50;;;;;;5016038;28;20127;-67
2021/04/12 07:39:02;;;;;;;8.10;4.20;;;21.10;74.60;;;;;;5017748;28;20030;-68
2021/04/12 07:41:55;;;;;;;11.18;4.55;;;21.10;74.60;;;;;;5014139;28;20080;-68
2021/04/12 07:45:00;;;;;;;6.13;3.38;;;21.10;74.50;;;;;;5014833;28;20384;-67
2021/04/12 07:47:32;;;;;;;10.70;4.25;;;21.20;74.50;;;;;;5012984;28;20026;-67
2021/04/12 07:50:23;;;;;;;11.05;4.00;;;21.20;74.40;;;;;;5017873;28;20113;-67
2021/04/12 07:53:17;;;;;;;8.88;3.88;;;21.30;74.40;;;;;;5014167;28;20022;-67
2021/04/12 07:56:02;;;;;;;9.60;3.08;;;21.30;74.20;;;;;;5015688;28;20028;-67
2021/04/12 07:59:07;;;;;;;7.95;3.42;;;21.30;74.00;;;;;;5019879;28;20392;-67
2021/04/12 08:01:39;;;;;;;12.95;3.78;;;21.40;74.00;;;;;;5014638;28;20187;-69
2021/04/12 08:04:43;;;;;;;5.78;2.75;;;21.50;73.90;;;;;;5014805;28;20425;-68
2021/04/12 08:07:37;;;;;;;8.30;3.10;;;21.50;73.80;;;;;;5032794;28;20021;-67
2021/04/12 08:10:40;;;;;;;5.63;3.08;;;21.60;73.80;;;;;;5011193;28;20018;-68
2021/04/12 08:13:19;;;;;;;9.77;2.55;;;21.70;73.60;;;;;;5013388;28;20109;-67
2021/04/12 08:15:57;;;;;;;11.07;3.80;;;21.70;73.50;;;;;;5013673;28;20362;-68
2021/04/12 08:19:02;;;;;;;8.93;3.05;;;21.80;73.20;;;;;;5012607;28;20181;-71
2021/04/12 08:21:41;;;;;;;4.70;2.95;;;21.90;72.80;;;;;;5017429;28;20394;-67
2021/04/12 08:24:44;;;;;;;5.88;2.67;;;21.90;72.30;;;;;;5014811;28;20022;-68
2021/04/12 08:27:47;;;;;;;11.82;4.25;;;22.00;72.10;;;;;;5014244;28;20033;-72
2021/04/12 08:30:32;;;;;;;8.95;3.42;;;22.00;71.80;;;;;;5015101;28;20429;-67
2021/04/12 08:33:27;;;;;;;10.05;3.75;;;22.10;71.70;;;;;;5015009;28;20072;-67
2021/04/12 08:36:31;;;;;;;6.18;2.53;;;22.10;71.40;;;;;;5010041;28;20076;-67
2021/04/12 08:39:24;;;;;;;8.57;3.30;;;22.20;71.00;;;;;;5022776;28;20390;-69
2021/04/12 08:42:07;;;;;;;7.38;3.20;;;22.20;70.60;;;;;;5016183;28;20045;-70
2021/04/12 08:44:36;;;;;;;10.80;3.92;;;22.30;70.50;;;;;;5017072;28;20021;-69
2021/04/12 08:47:35;;;;;;;5.85;2.80;;;22.40;70.20;;;;;;5014827;28;20026;-67
2021/04/12 08:50:40;;;;;;;9.23;3.10;;;22.50;69.50;;;;;;5015394;28;20088;-70
2021/04/12 08:53:25;;;;;;;10.82;4.20;;;22.50;69.20;;;;;;5031371;28;20040;-67
2021/04/12 08:56:03;;;;;;;10.73;3.83;;;22.50;68.90;;;;;;5015114;28;20105;-72
2021/04/12 08:59:06;;;;;;;7.47;3.38;;;22.50;68.60;;;;;;5016184;28;20021;-67
2021/04/12 09:01:59;;;;;;;9.77;5.32;;;22.60;68.40;;;;;;5014414;28;20117;-68
2021/04/12 09:04:59;;;;;;;8.18;4.10;;;22.70;68.10;;;;;;5016047;28;20804;-68
2021/04/12 09:07:56;;;;;;;9.32;3.83;;;22.70;68.10;;;;;;5013273;28;20133;-69
2021/04/12 09:10:42;;;;;;;7.32;3.47;;;22.80;67.60;;;;;;5016397;28;20029;-67
2021/04/12 09:13:56;;;;;;;7.20;3.13;;;22.90;67.00;;;;;;5018693;28;20022;-68
2021/04/12 09:16:30;;;;;;;7.85;4.53;;;23.00;66.60;;;;;;5029170;28;20487;-67
2021/04/12 09:19:16;;;;;;;7.78;3.50;;;23.00;66.60;;;;;;5027986;28;20022;-67
2021/04/12 09:22:13;;;;;;;9.32;3.58;;;23.10;66.30;;;;;;5021539;28;20091;-69
2021/04/12 09:24:52;;;;;;;15.02;3.83;;;23.20;66.00;;;;;;5016021;28;20109;-68
2021/04/12 09:27:47;;;;;;;12.60;3.45;;;23.30;65.50;;;;;;5018965;28;20062;-68
2021/04/12 09:30:50;;;;;;;13.23;3.60;;;23.40;65.20;;;;;;5020967;28;20186;-68
2021/04/12 09:33:44;;;;;;;8.43;2.63;;;23.50;65.30;;;;;;5019165;28;20069;-67
2021/04/12 09:36:48;;;;;;;7.53;3.35;;;23.60;65.00;;;;;;5014737;28;20793;-69
2021/04/12 09:39:27;;;;;;;9.80;3.15;;;23.70;64.80;;;;;;5018451;28;20104;-67
2021/04/12 09:42:28;;;;;;;11.18;3.53;;;23.70;64.20;;;;;;5021692;28;20030;-67
2021/04/12 09:45:31;;;;;;;12.68;3.88;;;23.80;63.50;;;;;;5015784;28;20559;-67
2021/04/12 09:48:07;;;;;;;8.70;3.60;;;23.80;63.00;;;;;;5018470;28;20022;-70
2021/04/12 09:51:14;;;;;;;9.35;3.20;;;23.90;62.60;;;;;;5016337;28;20106;-67
2021/04/12 09:53:59;;;;;;;11.65;3.53;;;23.90;62.20;;;;;;5023024;28;20026;-69
2021/04/12 09:57:03;;;;;;;6.22;3.55;;;23.90;62.60;;;;;;5018630;28;20072;-70
2021/04/12 09:59:39;;;;;;;9.13;3.80;;;23.80;63.20;;;;;;5017624;28;20025;-67
2021/04/12 10:02:24;;;;;;;6.97;3.58;;;23.70;63.60;;;;;;5017094;28;20118;-68
2021/04/12 10:05:10;;;;;;;8.45;3.72;;;23.60;63.80;;;;;;5014229;28;20018;-68
2021/04/12 10:08:01;;;;;;;10.77;3.53;;;23.60;64.10;;;;;;5016484;28;20037;-68
2021/04/12 10:10:42;;;;;;;7.78;3.97;;;23.50;64.00;;;;;;5018136;28;20458;-69
2021/04/12 10:13:28;;;;;;;12.63;3.60;;;23.50;63.90;;;;;;5015912;28;20029;-68
2021/04/12 10:16:02;;;;;;;6.03;3.25;;;23.40;63.70;;;;;;5018883;28;20090;-67
2021/04/12 10:18:38;;;;;;;8.25;3.67;;;23.30;63.80;;;;;;5015309;28;20018;-69
2021/04/12 10:21:25;;;;;;;9.55;3.33;;;23.30;63.90;;;;;;5014545;28;20018;-69
2021/04/12 10:24:27;;;;;;;8.52;3.00;;;23.20;63.80;;;;;;5014533;28;20021;-70
2021/04/12 10:27:05;;;;;;;13.43;3.65;;;23.20;63.80;;;;;;5027795;28;20034;-69
2021/04/12 10:29:41;;;;;;;8.10;3.28;;;23.20;63.80;;;;;;5016512;28;20036;-69
2021/04/12 10:32:20;;;;;;;9.90;2.90;;;23.20;63.70;;;;;;5017510;28;20065;-67
2021/04/12 10:35:01;;;;;;;11.15;3.60;;;23.20;63.60;;;;;;5020522;28;20022;-67
2021/04/12 10:37:44;;;;;;;11.43;3.33;;;23.20;63.40;;;;;;5016708;28;20475;-68
2021/04/12 10:40:19;;;;;;;9.40;3.90;;;23.20;63.30;;;;;;5014848;28;20477;-68
2021/04/12 10:42:58;;;;;;;8.93;3.60;;;23.20;63.30;;;;;;5015351;28;20428;-68
2021/04/12 10:45:37;;;;;;;12.63;2.90;;;23.30;63.40;;;;;;5016638;28;20038;-67
2021/04/12 10:48:06;;;;;;;9.55;3.63;;;23.30;63.30;;;;;;5016631;28;20026;-70
2021/04/12 10:50:52;;;;;;;14.02;3.40;;;23.30;63.30;;;;;;5017205;28;20489;-70
2021/04/12 10:53:33;;;;;;;8.15;3.53;;;23.30;63.30;;;;;;5017885;28;20030;-70
2021/04/12 10:56:18;;;;;;;7.50;3.78;;;23.30;63.10;;;;;;5016411;28;20366;-72
2021/04/12 10:58:54;;;;;;;10.38;3.50;;;23.30;63.20;;;;;;5015071;28;20473;-71
2021/04/12 11:01:59;;;;;;;8.45;3.90;;;23.40;63.30;;;;;;5031313;28;20486;-70
2021/04/12 11:04:43;;;;;;;5.43;2.53;;;23.40;63.20;;;;;;5033411;28;20049;-67
2021/04/12 11:07:43;;;;;;;7.40;3.20;;;23.40;63.20;;;;;;5015776;28;20040;-69
2021/04/12 11:10:38;;;;;;;8.25;2.47;;;23.40;62.90;;;;;;5017696;28;20025;-70
2021/04/12 11:13:24;;;;;;;5.18;2.45;;;23.40;62.90;;;;;;5017951;28;20021;-70
2021/04/12 11:16:09;;;;;;;4.68;2.45;;;23.40;63.50;;;;;;5015337;28;20014;-69
2021/04/12 11:18:41;;;;;;;11.10;3.22;;;23.50;62.80;;;;;;5016880;28;20040;-69
2021/04/12 11:21:28;;;;;;;7.85;3.05;;;23.50;62.70;;;;;;5015771;28;20088;-67
2021/04/12 11:24:14;;;;;;;6.50;2.78;;;23.50;62.60;;;;;;5015016;28;20091;-69
2021/04/12 11:27:18;;;;;;;10.00;2.78;;;23.60;62.60;;;;;;5015008;28;20038;-68
2021/04/12 11:30:13;;;;;;;11.07;2.97;;;23.60;62.40;;;;;;5015722;28;20533;-69
2021/04/12 11:33:09;;;;;;;13.38;3.58;;;23.70;62.50;;;;;;5016258;28;20056;-69
2021/04/12 11:36:25;;;;;;;12.35;4.30;;;23.80;62.30;;;;;;5014868;28;20036;-69
2021/04/12 11:39:23;;;;;;;;;;;24.00;62.20;;;;;;5016418;28;20060;-68
2021/04/12 11:41:56;;;;;;;11.50;3.80;;;24.00;62.00;;;;;;5015163;28;19936;-70
2021/04/12 11:44:57;;;;;;;5.60;2.88;;;24.10;61.80;;;;;;5017980;28;20129;-73
2021/04/12 11:47:36;;;;;;;12.88;3.25;;;24.20;61.80;;;;;;5020582;28;20044;-68
2021/04/12 11:50:57;;;;;;;10.07;3.55;;;24.30;61.60;;;;;;5016910;28;20149;-73
2021/04/12 11:54:15;;;;;;;8.10;3.03;;;24.30;60.90;;;;;;5014430;28;20054;-69
2021/04/12 11:56:45;;;;;;;5.43;2.45;;;24.30;60.40;;;;;;5018128;28;20495;-69
2021/04/12 11:59:26;;;;;;;9.68;2.60;;;24.30;60.00;;;;;;5012819;28;20036;-69
2021/04/12 12:02:14;;;;;;;4.38;2.20;;;24.30;60.40;;;;;;5017841;28;20041;-73
2021/04/12 12:04:46;;;;;;;6.72;2.58;;;24.30;60.30;;;;;;5014056;28;20082;-67
2021/04/12 12:07:31;;;;;;;8.30;1.75;;;24.30;60.40;;;;;;5018761;28;20032;-70
2021/04/12 12:10:35;;;;;;;8.43;2.67;;;24.20;60.50;;;;;;5022909;28;20010;-75
2021/04/12 12:13:16;;;;;;;6.15;2.53;;;24.20;60.60;;;;;;5020454;28;20100;-67
2021/04/12 12:16:07;;;;;;;8.63;3.30;;;24.30;60.70;;;;;;5014346;28;20018;-72
2021/04/12 12:18:39;;;;;;;4.07;1.73;;;24.30;60.80;;;;;;5013810;28;20033;-67
2021/04/12 12:21:14;;;;;;;9.90;2.17;;;24.40;60.70;;;;;;5014633;28;20061;-68
2021/04/12 12:23:44;;;;;;;6.22;2.85;;;24.50;60.60;;;;;;5029187;28;20388;-72
2021/04/12 12:26:53;;;;;;;5.47;2.00;;;24.60;60.40;;;;;;5018479;28;20021;-71
2021/04/12 12:29:21;;;;;;;8.65;2.70;;;24.70;60.00;;;;;;5015310;28;20079;-72
2021/04/12 12:32:13;;;;;;;3.65;1.90;;;24.80;59.70;;;;;;5013151;28;20022;-69
2021/04/12 12:34:51;;;;;;;9.45;2.97;;;24.90;59.30;;;;;;5016802;28;20041;-71
2021/04/12 12:37:56;;;;;;;10.43;2.40;;;25.00;59.20;;;;;;5014436;28;20041;-70
2021/04/12 12:40:35;;;;;;;8.10;2.03;;;25.00;59.10;;;;;;5028779;28;20033;-74
2021/04/12 12:43:08;;;;;;;3.75;1.73;;;25.10;59.00;;;;;;5018257;28;20337;-70
2021/04/12 12:45:42;;;;;;;6.82;1.90;;;25.10;59.00;;;;;;5022404;28;20029;-69
2021/04/12 12:48:17;;;;;;;2.35;1.73;;;25.00;58.90;;;;;;5027314;28;20404;-68
2021/04/12 12:50:52;;;;;;;4.03;1.77;;;25.00;58.90;;;;;;5022968;28;20021;-71
2021/04/12 12:53:27;;;;;;;7.18;2.45;;;25.00;59.00;;;;;;5027562;28;20477;-68
2021/04/12 12:56:13;;;;;;;;;;;25.00;59.00;;;;;;5028377;28;20033;-73
2021/04/12 12:58:39;;;;;;;;;;;24.90;59.10;;;;;;5026235;28;19935;-72
2021/04/12 13:01:10;;;;;;;3.15;1.60;;;24.90;59.10;;;;;;5019739;28;19956;-72
2021/04/12 13:03:45;;;;;;;5.43;1.92;;;24.90;59.20;;;;;;5023533;28;20025;-69
2021/04/12 13:06:21;;;;;;;3.60;2.22;;;24.90;59.20;;;;;;5022918;28;20030;-67
2021/04/12 13:08:56;;;;;;;5.60;1.75;;;25.00;59.10;;;;;;5020734;28;20116;-68
2021/04/12 13:11:58;;;;;;;4.93;1.45;;;25.00;58.90;;;;;;5024341;28;20507;-70
2021/04/12 13:14:33;;;;;;;7.80;1.83;;;25.00;58.70;;;;;;5037575;28;20183;-71
2021/04/12 13:17:16;;;;;;;6.40;1.73;;;25.10;58.50;;;;;;5014466;28;20037;-69
2021/04/12 13:19:53;;;;;;;6.43;1.90;;;25.10;58.20;;;;;;5015629;28;20390;-67
2021/04/12 13:22:42;;;;;;;3.50;1.65;;;25.20;58.00;;;;;;5015896;28;20033;-70
2021/04/12 13:25:22;;;;;;;4.63;1.25;;;25.30;57.90;;;;;;5016753;28;20152;-69
2021/04/12 13:27:54;;;;;;;6.13;1.48;;;25.30;57.50;;;;;;5018777;28;20014;-72
2021/04/12 13:30:30;;;;;;;7.45;2.22;;;25.40;57.30;;;;;;5016234;28;20029;-69
2021/04/12 13:33:01;;;;;;;7.03;1.67;;;25.40;56.90;;;;;;5016820;28;20042;-69
2021/04/12 13:35:35;;;;;;;3.22;1.40;;;25.40;56.70;;;;;;5016747;28;20022;-70
2021/04/12 13:38:04;;;;;;;6.50;1.58;;;25.50;56.50;;;;;;5018916;28;20014;-70
2021/04/12 13:40:40;;;;;;;2.67;1.35;;;25.50;56.50;;;;;;5014389;28;20117;-70
2021/04/12 13:43:11;;;;;;;5.00;1.80;;;25.50;56.40;;;;;;5017637;28;20092;-71
2021/04/12 13:45:49;;;;;;;5.28;1.98;;;25.60;56.30;;;;;;5014691;28;20026;-71
2021/04/12 13:48:23;;;;;;;7.47;1.75;;;25.60;56.20;;;;;;5016459;28;20026;-69
2021/04/12 13:51:24;;;;;;;4.95;1.45;;;25.60;55.80;;;;;;5010288;28;20492;-69
2021/04/12 13:54:00;;;;;;;4.13;1.33;;;25.60;55.80;;;;;;5015959;28;20100;-70
2021/04/12 13:56:41;;;;;;;4.72;1.52;;;25.60;55.70;;;;;;5021894;28;21877;-70
2021/04/12 13:59:27;;;;;;;3.65;1.20;;;25.70;55.40;;;;;;5013395;28;20025;-70
2021/04/12 14:02:12;;;;;;;6.53;1.92;;;25.70;55.40;;;;;;5018796;28;20140;-71
2021/04/12 14:04:46;;;;;;;5.28;1.65;;;25.60;55.40;;;;;;5013395;28;20030;-70
2021/04/12 14:07:40;;;;;;;3.88;1.17;;;25.60;55.30;;;;;;5018022;28;20152;-69
2021/04/12 14:10:31;;;;;;;5.53;1.50;;;25.60;55.40;;;;;;5018697;28;20473;-70
2021/04/12 14:13:19;;;;;;;3.38;1.35;;;25.60;55.20;;;;;;5012505;28;20125;-72
2021/04/12 14:16:19;;;;;;;2.40;1.10;;;25.60;55.00;;;;;;5017091;28;20064;-71
2021/04/12 14:18:48;;;;;;;5.00;1.05;;;25.60;54.70;;;;;;5018448;28;20037;-72
2021/04/12 14:21:34;;;;;;;11.52;1.60;;;25.50;54.80;;;;;;5014951;28;20022;-73
2021/04/12 14:24:23;;;;;;;2.95;1.40;;;25.50;54.40;;;;;;5019438;28;20413;-70
2021/04/12 14:27:15;;;;;;;5.18;1.67;;;25.50;54.80;;;;;;5022094;28;20082;-72
2021/04/12 14:30:07;;;;;;;1.63;1.08;;;25.40;55.00;;;;;;5021624;28;20067;-68
2021/04/12 14:32:43;;;;;;;4.72;1.10;;;25.40;55.10;;;;;;5025093;28;20033;-69